Maple Valley, WA

12:11 AM PDT on March 27, 2015 (GMT -0700)
Cedar Grove Composting - MV | | Change Station
CLOSE
Current Station
Personal Weather Station
Location: Maple Valley, WA
Elevation: 351 ft
Nearby Weather Stations

Elev 351 ft 47.44 °N, 122.06 °W | Updated 20 seconds ago

Clear
Clear
53.4 °F
Feels Like 53.4 °F
N
1.0
Wind Variable Wind from NE
Gusts 1.0 mph

Today
High -- | Low -- °F
--% Chance of Precip.
Yesterday
High -- | Low -- °F
Precip. -- in
6:57 AM 7:30 PM
Waxing Crescent, 50% visible
Pressure 30.15 in
Visibility 10.0 miles
Clouds Clear
Dew Point 49 °F
Humidity 85%
Rainfall 0.00 in
Snow Depth Not available.
UV 0 out of 12
Pollen 8.80 out of 12
Air Quality Not available.
Flu Activity Not available.
METAR KRNT 270653Z AUTO 31006KT 10SM CLR 13/09 A3013 RMK AO2 SLP209 T01330094

More Conditions Fewer Conditions

Pressure 30.15 in
Visibility 10.0 miles
Clouds Clear
Dew Point 49 °F
Humidity 85%
Rainfall 0.00 in
Snow Depth Not available.
UV 0 out of 12
Pollen 8.80 out of 12
Air Quality Not available.
Flu Activity Not available.
METAR KRNT 270653Z AUTO 31006KT 10SM CLR 13/09 A3013 RMK AO2 SLP209 T01330094

More Conditions Fewer Conditions

10-Day Weather Forecast

Almanac

Astronomy

Mar. 27, 2015 Rise Set
Actual Time
Civil Twilight
Nautical Twilight
Astronomical Twilight
Moon
Length of Visible Light
Length of Day
Tomorrow will be .
, % of the Moon is Illuminated

Today's Extremes

State Highs State Lows

Community

WunderPhotos

Upload Photos

1,808,701 photos uploaded!

WunderBlogs® & News

Nearby

Air Quality

  Air Quality AQ Index Pollutant
Not available.

Snow Depth

Station Depth Elevation

Earthquake Activity

City Distance Mag. Time & Date
Minimum magnitude displayed is 2.5.

Coastal Water Temperatures

Place Temperature

Stations

Nearby Weather Stations

Station Location Temp. Windchill Dew Point Humidity Wind Precip. Elev Updated Type